Ibipeba, Brazil
Current Conditions -  °F | °C
As of 10:00 PM on Thursday 27 Nov 2014 (Local Time) from SBPL Reporting Station
Clear Clear  
Wind Chill: 84°   Ceiling: Unl
Heat Index: 86°   Visibility: 6mi
Dew Point: 64°   Wind: 6mph
Humidity: 51%   Direction: 170°S
Pressure: 29.91"   Gusts: NA
Location:  11.64°S, 42.01°W
Report Text: SBPL 280100Z 17005KT CAVOK 29/18 Q1013
Loading
Personal Weather Stations






























Interactive Weather Map New forecast layout! Learn more

10-Day Weather Forecast

Advertisements
Track Severe Weather on mobile